createdAt,value
2023-05-20T00:00:24.426Z,14.70
2023-05-20T00:02:52.721Z,14.70
2023-05-20T00:05:21.077Z,14.70
2023-05-20T00:07:49.295Z,14.70
2023-05-20T00:10:17.761Z,14.70
2023-05-20T00:12:47.433Z,14.60
2023-05-20T00:15:15.774Z,14.60
2023-05-20T00:17:44.202Z,14.60
2023-05-20T00:20:13.232Z,14.60
2023-05-20T00:22:41.516Z,14.60
2023-05-20T00:25:11.339Z,14.60
2023-05-20T00:27:39.521Z,14.50
2023-05-20T00:30:10.977Z,14.50
2023-05-20T00:32:39.397Z,14.50
2023-05-20T00:35:09.394Z,14.50
2023-05-20T00:37:37.655Z,14.50
2023-05-20T00:40:06.730Z,14.50
2023-05-20T00:42:35.216Z,14.50
2023-05-20T00:45:03.921Z,14.40
2023-05-20T00:47:36.647Z,14.40
2023-05-20T00:50:05.940Z,14.40
2023-05-20T00:52:35.016Z,14.40
2023-05-20T00:55:03.442Z,14.40
2023-05-20T00:57:34.209Z,14.30
2023-05-20T01:00:02.894Z,14.30
2023-05-20T01:02:33.262Z,14.30
2023-05-20T01:05:01.556Z,14.30
2023-05-20T01:07:29.972Z,14.30
2023-05-20T01:09:58.433Z,14.30
2023-05-20T01:12:29.787Z,14.30
2023-05-20T01:15:04.390Z,14.20
2023-05-20T01:17:38.076Z,14.20
2023-05-20T01:20:10.753Z,14.20
2023-05-20T01:22:47.911Z,14.20
2023-05-20T01:25:16.163Z,14.20
2023-05-20T01:27:45.686Z,14.20
2023-05-20T01:30:15.739Z,14.10
2023-05-20T01:32:49.578Z,14.10
2023-05-20T01:35:19.245Z,14.10
2023-05-20T01:37:54.383Z,14.10
2023-05-20T01:40:24.815Z,14.10
2023-05-20T01:42:55.278Z,14.10
2023-05-20T01:45:25.370Z,14.10
2023-05-20T01:47:53.921Z,14.10
2023-05-20T01:50:22.402Z,14.10
2023-05-20T01:52:52.339Z,14.00
2023-05-20T01:55:20.762Z,14.00
2023-05-20T01:57:48.971Z,13.90
2023-05-20T02:00:17.516Z,13.90
2023-05-20T02:02:46.412Z,13.90
2023-05-20T02:05:17.511Z,13.90
2023-05-20T02:07:45.898Z,13.90
2023-05-20T02:10:16.263Z,13.90
2023-05-20T02:12:44.571Z,13.80
2023-05-20T02:15:13.020Z,13.80
2023-05-20T02:17:43.783Z,13.80
2023-05-20T02:20:14.033Z,13.80
2023-05-20T02:22:42.353Z,13.80
2023-05-20T02:25:12.576Z,13.70
2023-05-20T02:27:42.334Z,13.70
2023-05-20T02:30:11.593Z,13.70
2023-05-20T02:32:39.899Z,13.70
2023-05-20T02:35:08.762Z,13.60
2023-05-20T02:37:39.090Z,13.60
2023-05-20T02:40:10.413Z,13.60
2023-05-20T02:42:42.214Z,13.60
2023-05-20T02:45:11.261Z,13.60
2023-05-20T02:47:40.409Z,13.60
2023-05-20T02:50:09.456Z,13.70
2023-05-20T02:52:40.080Z,13.60
2023-05-20T02:55:09.607Z,13.60
2023-05-20T02:57:39.294Z,13.60
2023-05-20T03:00:13.689Z,13.70
2023-05-20T03:02:41.993Z,13.70
2023-05-20T03:05:11.078Z,13.70
2023-05-20T03:07:39.704Z,13.70
2023-05-20T03:10:09.611Z,13.70
2023-05-20T03:12:40.333Z,13.70
2023-05-20T03:15:13.551Z,13.70
2023-05-20T03:17:41.859Z,13.70
2023-05-20T03:20:12.903Z,13.70
2023-05-20T03:22:43.933Z,13.70
2023-05-20T03:25:12.687Z,13.80
2023-05-20T03:27:44.872Z,13.80
2023-05-20T03:30:15.290Z,13.80
2023-05-20T03:32:44.365Z,13.80
2023-05-20T03:35:13.022Z,13.90
2023-05-20T03:37:41.266Z,13.90
2023-05-20T03:40:11.368Z,14.00
2023-05-20T03:42:41.298Z,14.00
2023-05-20T03:45:11.097Z,14.00
2023-05-20T03:47:48.151Z,14.10
2023-05-20T03:50:19.104Z,14.10
2023-05-20T03:52:47.387Z,14.20
2023-05-20T03:55:17.932Z,14.20
2023-05-20T03:57:46.190Z,14.20
2023-05-20T04:00:16.120Z,14.30
2023-05-20T04:02:48.522Z,14.30
2023-05-20T04:05:20.283Z,14.40
2023-05-20T04:07:49.755Z,14.40
2023-05-20T04:10:20.641Z,14.50
2023-05-20T04:12:48.964Z,14.40
2023-05-20T04:15:17.550Z,14.50
2023-05-20T04:17:57.959Z,14.60
2023-05-20T04:20:27.002Z,14.70
2023-05-20T04:22:58.045Z,14.70
2023-05-20T04:25:28.778Z,14.80
2023-05-20T04:27:57.954Z,14.90
2023-05-20T04:30:26.410Z,15.00
2023-05-20T04:32:57.434Z,15.00
2023-05-20T04:35:26.258Z,15.10
2023-05-20T04:37:57.080Z,15.10
2023-05-20T04:40:25.416Z,15.20
2023-05-20T04:42:54.521Z,15.30
2023-05-20T04:45:23.409Z,15.40
2023-05-20T04:47:53.487Z,15.60
2023-05-20T04:50:23.367Z,15.70
2023-05-20T04:52:51.775Z,15.80
2023-05-20T04:55:25.003Z,15.90
2023-05-20T04:57:53.487Z,16.00
2023-05-20T05:00:21.713Z,16.20
2023-05-20T05:02:50.254Z,16.30
2023-05-20T05:05:18.799Z,16.50
2023-05-20T05:07:48.541Z,16.70
2023-05-20T05:10:16.869Z,16.90
2023-05-20T05:12:45.553Z,17.10
2023-05-20T05:15:13.906Z,17.20
2023-05-20T05:17:44.245Z,17.40
2023-05-20T05:20:13.039Z,17.50
2023-05-20T05:22:41.828Z,17.50
2023-05-20T05:25:12.612Z,17.70
2023-05-20T05:27:41.269Z,17.90
2023-05-20T05:30:11.545Z,18.30
2023-05-20T05:32:40.686Z,18.60
2023-05-20T05:35:09.634Z,19.30
2023-05-20T05:37:38.051Z,20.10
2023-05-20T05:40:09.038Z,20.70
2023-05-20T05:42:38.706Z,21.30
2023-05-20T05:45:09.510Z,21.50
2023-05-20T05:47:38.256Z,21.70
2023-05-20T05:50:07.074Z,21.90
2023-05-20T05:52:36.460Z,22.10
2023-05-20T05:55:10.756Z,22.10
2023-05-20T05:57:40.576Z,22.10
2023-05-20T06:00:11.083Z,22.10
2023-05-20T06:02:49.451Z,22.00
2023-05-20T06:05:33.133Z,22.00
2023-05-20T06:08:04.460Z,22.10
2023-05-20T06:10:34.757Z,22.10
2023-05-20T06:13:04.375Z,21.90
2023-05-20T06:15:33.654Z,21.90
2023-05-20T06:18:04.000Z,22.10
2023-05-20T06:20:33.556Z,22.30
2023-05-20T06:23:01.957Z,22.40
2023-05-20T06:25:39.644Z,22.50
2023-05-20T06:28:10.607Z,22.60
2023-05-20T06:30:39.062Z,22.80
2023-05-20T06:33:07.361Z,23.30
2023-05-20T06:35:36.345Z,24.10
2023-05-20T06:38:06.198Z,24.70
2023-05-20T06:40:35.376Z,25.00
2023-05-20T06:43:03.917Z,25.00
2023-05-20T06:45:51.894Z,24.90
2023-05-20T06:48:28.876Z,25.00
2023-05-20T06:50:59.667Z,25.30
2023-05-20T06:53:28.095Z,25.70
2023-05-20T06:55:56.775Z,26.50
2023-05-20T06:58:25.238Z,27.40
2023-05-20T07:00:55.740Z,28.50
2023-05-20T07:03:24.873Z,29.40
2023-05-20T07:05:55.585Z,29.90
2023-05-20T07:08:24.626Z,30.90
2023-05-20T07:10:53.103Z,31.60
2023-05-20T07:13:24.064Z,32.10
2023-05-20T07:15:55.900Z,32.50
2023-05-20T07:18:24.158Z,33.30
2023-05-20T07:20:56.895Z,33.90
2023-05-20T07:23:34.685Z,34.60
2023-05-20T07:26:03.268Z,35.20
2023-05-20T07:28:31.519Z,35.60
2023-05-20T07:31:01.175Z,35.90
2023-05-20T07:33:31.070Z,36.10
2023-05-20T07:36:00.274Z,36.30
2023-05-20T07:38:28.593Z,36.50
2023-05-20T07:41:01.104Z,36.50
2023-05-20T07:43:29.906Z,36.70
2023-05-20T07:46:02.242Z,37.00
2023-05-20T07:48:30.575Z,37.10
2023-05-20T07:50:59.904Z,37.10
2023-05-20T07:53:29.168Z,37.10
2023-05-20T07:55:57.532Z,37.30
2023-05-20T07:58:28.987Z,37.40
2023-05-20T08:00:57.560Z,37.50
2023-05-20T08:03:28.319Z,37.50
2023-05-20T08:06:02.411Z,37.70
2023-05-20T08:08:30.718Z,37.90
2023-05-20T08:11:06.713Z,38.20
2023-05-20T08:13:35.009Z,38.40
2023-05-20T08:16:07.359Z,38.80
2023-05-20T08:18:38.143Z,39.00
2023-05-20T08:21:08.102Z,39.30
2023-05-20T08:23:38.935Z,39.60
2023-05-20T08:26:08.829Z,39.80
2023-05-20T08:28:41.171Z,39.80
2023-05-20T08:31:09.878Z,39.80
2023-05-20T08:33:39.684Z,39.80
2023-05-20T08:36:09.028Z,39.80
2023-05-20T08:38:37.736Z,39.80
2023-05-20T08:41:06.068Z,40.00
2023-05-20T08:43:35.044Z,39.80
2023-05-20T08:46:06.616Z,39.40
2023-05-20T08:48:37.176Z,39.20
2023-05-20T08:51:10.526Z,39.60
2023-05-20T08:53:38.749Z,39.70
2023-05-20T08:56:10.814Z,40.00
2023-05-20T08:58:43.081Z,40.40
2023-05-20T09:01:11.428Z,40.60
2023-05-20T09:03:39.575Z,40.20
2023-05-20T09:06:10.280Z,39.60
2023-05-20T09:08:38.785Z,39.20
2023-05-20T09:11:07.184Z,38.70
2023-05-20T09:13:35.951Z,38.50
2023-05-20T09:16:04.514Z,37.80
2023-05-20T09:18:33.084Z,37.00
2023-05-20T09:21:07.068Z,36.40
2023-05-20T09:23:38.801Z,35.70
2023-05-20T09:26:07.214Z,35.20
2023-05-20T09:28:38.442Z,35.10
2023-05-20T09:31:08.888Z,35.30
2023-05-20T09:33:39.425Z,35.50
2023-05-20T09:36:09.961Z,35.10
2023-05-20T09:38:41.714Z,35.00
2023-05-20T09:41:15.418Z,34.70
2023-05-20T09:43:44.243Z,34.60
2023-05-20T09:46:13.078Z,35.00
2023-05-20T09:48:41.669Z,35.00
2023-05-20T09:51:11.500Z,35.00
2023-05-20T09:53:41.841Z,34.70
2023-05-20T09:56:10.090Z,34.70
2023-05-20T09:58:39.055Z,34.90
2023-05-20T10:01:08.438Z,35.00
2023-05-20T10:03:37.182Z,35.40
2023-05-20T10:06:25.920Z,35.80
2023-05-20T10:09:19.433Z,35.70
2023-05-20T10:11:56.513Z,34.80
2023-05-20T10:14:42.243Z,34.00
2023-05-20T10:17:18.038Z,33.50
2023-05-20T10:19:46.313Z,32.90
2023-05-20T10:22:14.726Z,32.70
2023-05-20T10:24:45.657Z,32.80
2023-05-20T10:27:17.220Z,33.00
2023-05-20T10:32:25.901Z,33.50
2023-05-20T10:34:55.652Z,33.70
2023-05-20T10:37:28.008Z,33.70
2023-05-20T10:40:08.468Z,33.80
2023-05-20T10:42:36.904Z,33.80
2023-05-20T10:45:06.169Z,33.60
2023-05-20T10:47:34.623Z,33.20
2023-05-20T10:50:04.997Z,33.40
2023-05-20T10:52:35.001Z,33.70
2023-05-20T10:55:04.963Z,33.70
2023-05-20T10:57:35.928Z,33.70
2023-05-20T11:00:06.775Z,33.80
2023-05-20T11:02:36.293Z,34.00
2023-05-20T11:05:06.736Z,33.80
2023-05-20T11:07:35.253Z,33.60
2023-05-20T11:10:03.874Z,33.40
2023-05-20T11:12:33.862Z,33.30
2023-05-20T11:15:05.305Z,33.20
2023-05-20T11:17:34.160Z,32.90
2023-05-20T11:20:02.471Z,32.50
2023-05-20T11:22:30.901Z,32.30
2023-05-20T11:24:59.167Z,32.30
2023-05-20T11:27:27.409Z,32.30
2023-05-20T11:29:55.663Z,32.20
2023-05-20T11:32:26.678Z,32.10
2023-05-20T11:34:55.111Z,32.00
2023-05-20T11:37:25.478Z,31.90
2023-05-20T11:40:07.828Z,31.60
2023-05-20T11:42:37.407Z,31.50
2023-05-20T11:45:14.419Z,31.40
2023-05-20T11:47:44.073Z,31.50
2023-05-20T11:50:17.980Z,31.40
2023-05-20T11:52:46.405Z,31.30
2023-05-20T11:55:16.466Z,31.00
2023-05-20T11:57:45.104Z,30.70
2023-05-20T12:00:14.302Z,30.40
2023-05-20T12:02:44.110Z,30.10
2023-05-20T12:05:12.917Z,29.90
2023-05-20T12:07:41.378Z,29.70
2023-05-20T12:10:11.168Z,29.70
2023-05-20T12:12:39.546Z,29.70
2023-05-20T12:15:08.568Z,29.50
2023-05-20T12:17:50.057Z,29.30
2023-05-20T12:20:21.038Z,29.20
2023-05-20T12:22:49.846Z,28.90
2023-05-20T12:25:19.350Z,28.60
2023-05-20T12:27:49.258Z,28.40
2023-05-20T12:30:18.816Z,28.30
2023-05-20T12:32:47.820Z,28.20
2023-05-20T12:35:17.953Z,28.00
2023-05-20T12:37:46.528Z,28.00
2023-05-20T12:40:15.279Z,28.00
2023-05-20T12:42:43.723Z,27.90
2023-05-20T12:45:13.500Z,27.80
2023-05-20T12:47:41.834Z,27.70
2023-05-20T12:50:10.929Z,27.70
2023-05-20T12:52:40.630Z,27.60
2023-05-20T12:55:13.845Z,27.60
2023-05-20T12:57:42.655Z,27.50
2023-05-20T13:00:12.660Z,27.40
2023-05-20T13:02:42.550Z,27.40
2023-05-20T13:05:11.772Z,27.40
2023-05-20T13:07:41.662Z,27.50
2023-05-20T13:10:11.651Z,27.40
2023-05-20T13:12:40.592Z,27.40
2023-05-20T13:15:09.957Z,27.30
2023-05-20T13:17:38.454Z,27.10
2023-05-20T13:20:07.926Z,27.00
2023-05-20T13:22:36.228Z,27.00
2023-05-20T13:25:06.781Z,27.00
2023-05-20T13:27:35.430Z,27.00
2023-05-20T13:30:04.206Z,26.90
2023-05-20T13:32:32.625Z,26.80
2023-05-20T13:35:01.004Z,26.80
2023-05-20T13:37:30.775Z,26.80
2023-05-20T13:39:58.990Z,26.80
2023-05-20T13:42:28.588Z,26.70
2023-05-20T13:44:56.776Z,26.50
2023-05-20T13:47:27.722Z,26.50
2023-05-20T13:49:56.113Z,26.40
2023-05-20T13:52:26.672Z,26.40
2023-05-20T13:54:54.865Z,26.40
2023-05-20T13:57:23.546Z,26.40
2023-05-20T13:59:53.222Z,26.30
2023-05-20T14:02:21.556Z,26.10
2023-05-20T14:04:49.850Z,26.00
2023-05-20T14:07:18.174Z,25.80
2023-05-20T14:09:46.447Z,25.70
2023-05-20T14:12:14.732Z,25.70
2023-05-20T14:14:43.084Z,25.70
2023-05-20T14:17:12.780Z,25.70
2023-05-20T14:19:41.185Z,25.70
2023-05-20T14:22:09.398Z,25.70
2023-05-20T14:24:37.643Z,25.70
2023-05-20T14:27:07.304Z,25.70
2023-05-20T14:29:35.623Z,25.70
2023-05-20T14:32:05.206Z,25.80
2023-05-20T14:34:35.006Z,25.80
2023-05-20T14:37:09.842Z,25.80
2023-05-20T14:39:38.309Z,25.80
2023-05-20T14:42:07.001Z,25.90
2023-05-20T14:44:35.496Z,25.90
2023-05-20T14:47:04.468Z,25.90
2023-05-20T14:49:34.430Z,25.90
2023-05-20T14:52:02.697Z,26.00
2023-05-20T14:54:33.074Z,26.10
2023-05-20T14:57:01.331Z,26.30
2023-05-20T14:59:29.615Z,26.30
2023-05-20T15:02:00.632Z,26.30
2023-05-20T15:04:28.934Z,26.30
2023-05-20T15:06:58.662Z,26.20
2023-05-20T15:09:27.196Z,26.20
2023-05-20T15:11:55.542Z,26.10
2023-05-20T15:14:23.710Z,26.00
2023-05-20T15:16:52.097Z,25.90
2023-05-20T15:19:22.925Z,25.80
2023-05-20T15:21:51.859Z,25.80
2023-05-20T15:24:22.132Z,25.70
2023-05-20T15:26:50.383Z,25.60
2023-05-20T15:29:18.683Z,25.40
2023-05-20T15:31:46.894Z,25.30
2023-05-20T15:34:15.186Z,25.20
2023-05-20T15:36:43.502Z,25.20
2023-05-20T15:39:11.997Z,25.20
2023-05-20T15:41:42.555Z,25.20
2023-05-20T15:44:12.050Z,25.10
2023-05-20T15:46:40.430Z,25.10
2023-05-20T15:49:08.810Z,25.10
2023-05-20T15:51:37.038Z,24.90
2023-05-20T15:54:05.329Z,24.90
2023-05-20T15:56:33.629Z,24.90
2023-05-20T15:59:03.305Z,24.90
2023-05-20T16:01:31.864Z,25.00
2023-05-20T16:04:00.292Z,25.00
2023-05-20T16:06:28.598Z,25.10
2023-05-20T16:08:57.094Z,25.10
2023-05-20T16:11:25.513Z,25.10
2023-05-20T16:13:53.752Z,25.20
2023-05-20T16:16:26.088Z,25.20
2023-05-20T16:18:54.659Z,25.20
2023-05-20T16:21:25.048Z,25.20
2023-05-20T16:23:53.801Z,25.10
2023-05-20T16:26:22.786Z,25.10
2023-05-20T16:28:51.090Z,25.10
2023-05-20T16:31:19.687Z,25.10
2023-05-20T16:33:49.299Z,25.10
2023-05-20T16:36:17.616Z,25.00
2023-05-20T16:38:48.397Z,25.00
2023-05-20T16:41:16.825Z,25.00
2023-05-20T16:43:45.206Z,24.90
2023-05-20T16:46:14.633Z,24.80
2023-05-20T16:48:45.331Z,24.80
2023-05-20T16:51:15.043Z,24.70
2023-05-20T16:53:45.542Z,24.70
2023-05-20T16:56:13.870Z,24.60
2023-05-20T16:58:42.136Z,24.50
2023-05-20T17:01:10.497Z,24.50
2023-05-20T17:03:38.854Z,24.40
2023-05-20T17:06:07.515Z,24.30
2023-05-20T17:08:38.244Z,24.20
2023-05-20T17:11:06.670Z,24.20
2023-05-20T17:13:34.915Z,24.10
2023-05-20T17:16:03.359Z,24.10
2023-05-20T17:18:31.745Z,24.00
2023-05-20T17:21:01.204Z,23.90
2023-05-20T17:23:29.495Z,23.80
2023-05-20T17:25:59.154Z,23.80
2023-05-20T17:28:27.625Z,23.70
2023-05-20T17:30:55.893Z,23.70
2023-05-20T17:33:24.645Z,23.60
2023-05-20T17:35:55.336Z,23.60
2023-05-20T17:38:26.210Z,23.50
2023-05-20T17:40:54.832Z,23.50
2023-05-20T17:43:25.648Z,23.40
2023-05-20T17:45:53.950Z,23.30
2023-05-20T17:48:22.277Z,23.20
2023-05-20T17:50:50.768Z,23.20
2023-05-20T17:53:21.084Z,23.10
2023-05-20T17:55:50.107Z,23.10
2023-05-20T17:58:18.604Z,23.00
2023-05-20T18:00:48.202Z,22.90
2023-05-20T18:03:17.778Z,22.80
2023-05-20T18:05:46.163Z,22.80
2023-05-20T18:08:14.390Z,22.70
2023-05-20T18:10:42.659Z,22.60
2023-05-20T18:13:10.970Z,22.50
2023-05-20T18:15:39.306Z,22.50
2023-05-20T18:18:09.116Z,22.40
2023-05-20T18:20:37.643Z,22.30
2023-05-20T18:23:05.967Z,22.20
2023-05-20T18:25:34.229Z,22.20
2023-05-20T18:28:03.109Z,22.10
2023-05-20T18:30:31.482Z,22.10
2023-05-20T18:32:59.790Z,21.90
2023-05-20T18:35:29.501Z,21.90
2023-05-20T18:38:00.135Z,21.90
2023-05-20T18:40:29.128Z,21.80
2023-05-20T18:42:59.648Z,21.70
2023-05-20T18:45:27.979Z,21.60
2023-05-20T18:47:59.376Z,21.60
2023-05-20T18:50:29.200Z,21.50
2023-05-20T18:52:57.698Z,21.50
2023-05-20T18:55:26.858Z,21.40
2023-05-20T18:57:55.093Z,21.30
2023-05-20T19:00:26.025Z,21.30
2023-05-20T19:02:58.110Z,21.20
2023-05-20T19:05:26.628Z,21.10
2023-05-20T19:07:56.362Z,21.10
2023-05-20T19:10:24.768Z,21.00
2023-05-20T19:12:52.941Z,20.90
2023-05-20T19:15:21.272Z,20.90
2023-05-20T19:17:49.575Z,20.80
2023-05-20T19:20:18.076Z,20.80
2023-05-20T19:22:46.387Z,20.70
2023-05-20T19:25:16.202Z,20.60
2023-05-20T19:27:44.477Z,20.60
2023-05-20T19:30:13.529Z,20.60
2023-05-20T19:32:44.094Z,20.50
2023-05-20T19:35:12.444Z,20.40
2023-05-20T19:37:40.767Z,20.40
2023-05-20T19:40:10.298Z,20.30
2023-05-20T19:42:39.895Z,20.30
2023-05-20T19:45:09.564Z,20.30
2023-05-20T19:47:38.129Z,20.20
2023-05-20T19:50:07.393Z,20.20
2023-05-20T19:52:35.994Z,20.10
2023-05-20T19:55:04.463Z,20.10
2023-05-20T19:57:33.082Z,20.00
2023-05-20T20:00:07.344Z,19.90
2023-05-20T20:02:41.581Z,19.90
2023-05-20T20:05:10.511Z,19.90
2023-05-20T20:07:38.839Z,19.80
2023-05-20T20:10:08.558Z,19.70
2023-05-20T20:12:36.806Z,19.70
2023-05-20T20:15:07.357Z,19.60
2023-05-20T20:17:35.780Z,19.50
2023-05-20T20:20:07.297Z,19.40
2023-05-20T20:22:38.128Z,19.30
2023-05-20T20:25:06.972Z,19.20
2023-05-20T20:27:35.666Z,19.10
2023-05-20T20:30:03.939Z,19.00
2023-05-20T20:32:35.100Z,18.90
2023-05-20T20:35:06.184Z,18.90
2023-05-20T20:37:35.549Z,18.90
2023-05-20T20:40:08.519Z,18.80
2023-05-20T20:42:37.522Z,18.70
2023-05-20T20:45:06.528Z,18.70
2023-05-20T20:47:38.702Z,18.70
2023-05-20T20:50:08.273Z,18.60
2023-05-20T20:52:38.697Z,18.60
2023-05-20T20:55:08.140Z,18.60
2023-05-20T20:57:36.945Z,18.50
2023-05-20T21:00:16.052Z,18.50
2023-05-20T21:02:45.906Z,18.50
2023-05-20T21:05:16.932Z,18.40
2023-05-20T21:07:49.762Z,18.30
2023-05-20T21:10:18.291Z,18.30
2023-05-20T21:12:48.676Z,18.30
2023-05-20T21:15:17.104Z,18.20
2023-05-20T21:17:46.758Z,18.20
2023-05-20T21:20:16.271Z,18.20
2023-05-20T21:22:44.683Z,18.10
2023-05-20T21:25:13.216Z,18.10
2023-05-20T21:27:42.284Z,18.00
2023-05-20T21:30:11.643Z,18.00
2023-05-20T21:32:40.175Z,18.00
2023-05-20T21:35:11.220Z,17.90
2023-05-20T21:37:39.589Z,17.90
2023-05-20T21:40:09.105Z,17.90
2023-05-20T21:42:37.939Z,17.80
2023-05-20T21:45:07.458Z,17.80
2023-05-20T21:47:35.890Z,17.70
2023-05-20T21:50:04.546Z,17.70
2023-05-20T21:52:34.239Z,17.70
2023-05-20T21:55:02.503Z,17.70
2023-05-20T21:57:33.319Z,17.70
2023-05-20T22:00:05.597Z,17.70
2023-05-20T22:02:33.910Z,17.60
2023-05-20T22:05:02.265Z,17.60
2023-05-20T22:07:30.784Z,17.50
2023-05-20T22:10:00.836Z,17.50
2023-05-20T22:12:29.374Z,17.40
2023-05-20T22:14:57.806Z,17.40
2023-05-20T22:17:26.249Z,17.40
2023-05-20T22:19:54.996Z,17.40
2023-05-20T22:22:23.270Z,17.30
2023-05-20T22:24:51.655Z,17.30
2023-05-20T22:27:21.456Z,17.30
2023-05-20T22:29:49.678Z,17.30
2023-05-20T22:32:17.990Z,17.30
2023-05-20T22:34:46.511Z,17.20
2023-05-20T22:37:15.951Z,17.10
2023-05-20T22:39:44.198Z,17.10
2023-05-20T22:42:12.562Z,17.10
2023-05-20T22:44:42.307Z,17.00
2023-05-20T22:47:10.534Z,17.00
2023-05-20T22:49:40.536Z,16.90
2023-05-20T22:52:08.992Z,16.90
2023-05-20T22:54:37.227Z,16.90
2023-05-20T22:57:06.081Z,16.90
2023-05-20T22:59:34.421Z,16.80
2023-05-20T23:02:06.833Z,16.80
2023-05-20T23:04:35.299Z,16.80
2023-05-20T23:07:03.650Z,16.80
2023-05-20T23:09:31.978Z,16.70
2023-05-20T23:12:02.649Z,16.70
2023-05-20T23:14:31.583Z,16.70
2023-05-20T23:16:59.987Z,16.60
2023-05-20T23:19:29.922Z,16.50
2023-05-20T23:21:58.243Z,16.50
2023-05-20T23:24:26.676Z,16.40
2023-05-20T23:26:57.145Z,16.30
2023-05-20T23:29:28.830Z,16.20
2023-05-20T23:31:57.017Z,16.20
2023-05-20T23:34:25.300Z,16.10
2023-05-20T23:36:54.900Z,16.00
2023-05-20T23:39:25.635Z,15.90
2023-05-20T23:41:53.850Z,15.80
2023-05-20T23:44:22.235Z,15.80
2023-05-20T23:46:51.127Z,15.80
2023-05-20T23:49:22.562Z,15.70
2023-05-20T23:51:51.464Z,15.70
2023-05-20T23:54:23.423Z,15.60
2023-05-20T23:56:51.697Z,15.60
2023-05-20T23:59:19.881Z,15.60
